sensor_id;sensor_type;location;lat;lon;timestamp;temperature;humidity
65046;DHT22;54657;52.022;5.534;2023-01-24T00:00:27;5.10;81.10
65046;DHT22;54657;52.022;5.534;2023-01-24T00:02:52;5.10;81.10
65046;DHT22;54657;52.022;5.534;2023-01-24T00:05:19;5.10;81.20
65046;DHT22;54657;52.022;5.534;2023-01-24T00:07:44;5.10;80.90
65046;DHT22;54657;52.022;5.534;2023-01-24T00:10:11;5.20;81.20
65046;DHT22;54657;52.022;5.534;2023-01-24T00:12:36;5.10;81.00
65046;DHT22;54657;52.022;5.534;2023-01-24T00:15:03;5.10;80.80
65046;DHT22;54657;52.022;5.534;2023-01-24T00:17:28;5.10;81.10
65046;DHT22;54657;52.022;5.534;2023-01-24T00:19:54;5.10;81.20
65046;DHT22;54657;52.022;5.534;2023-01-24T00:22:19;5.10;81.10
65046;DHT22;54657;52.022;5.534;2023-01-24T00:24:45;5.10;80.90
65046;DHT22;54657;52.022;5.534;2023-01-24T00:27:11;5.10;81.10
65046;DHT22;54657;52.022;5.534;2023-01-24T00:29:37;5.10;81.20
65046;DHT22;54657;52.022;5.534;2023-01-24T00:32:02;5.20;81.30
65046;DHT22;54657;52.022;5.534;2023-01-24T00:34:28;5.10;81.00
65046;DHT22;54657;52.022;5.534;2023-01-24T00:36:53;5.10;81.70
65046;DHT22;54657;52.022;5.534;2023-01-24T00:39:19;5.10;81.20
65046;DHT22;54657;52.022;5.534;2023-01-24T00:41:44;5.00;81.10
65046;DHT22;54657;52.022;5.534;2023-01-24T00:44:10;5.10;81.30
65046;DHT22;54657;52.022;5.534;2023-01-24T00:46:36;5.00;81.10
65046;DHT22;54657;52.022;5.534;2023-01-24T00:49:02;5.00;81.00
65046;DHT22;54657;52.022;5.534;2023-01-24T00:51:28;5.10;81.00
65046;DHT22;54657;52.022;5.534;2023-01-24T00:53:53;5.00;80.30
65046;DHT22;54657;52.022;5.534;2023-01-24T00:56:19;5.00;80.80
65046;DHT22;54657;52.022;5.534;2023-01-24T00:58:44;5.00;81.20
65046;DHT22;54657;52.022;5.534;2023-01-24T01:01:10;5.00;81.20
65046;DHT22;54657;52.022;5.534;2023-01-24T01:03:35;5.00;81.20
65046;DHT22;54657;52.022;5.534;2023-01-24T01:06:03;5.00;80.90
65046;DHT22;54657;52.022;5.534;2023-01-24T01:08:30;5.00;81.00
65046;DHT22;54657;52.022;5.534;2023-01-24T01:10:56;5.00;81.00
65046;DHT22;54657;52.022;5.534;2023-01-24T01:13:22;5.00;81.40
65046;DHT22;54657;52.022;5.534;2023-01-24T01:15:47;5.00;81.20
65046;DHT22;54657;52.022;5.534;2023-01-24T01:18:13;5.00;80.60
65046;DHT22;54657;52.022;5.534;2023-01-24T01:20:38;5.00;81.30
65046;DHT22;54657;52.022;5.534;2023-01-24T01:23:04;5.00;81.10
65046;DHT22;54657;52.022;5.534;2023-01-24T01:25:30;4.90;80.30
65046;DHT22;54657;52.022;5.534;2023-01-24T01:27:56;5.00;81.00
65046;DHT22;54657;52.022;5.534;2023-01-24T01:30:21;5.00;81.00
65046;DHT22;54657;52.022;5.534;2023-01-24T01:32:47;5.00;80.60
65046;DHT22;54657;52.022;5.534;2023-01-24T01:35:13;4.90;80.60
65046;DHT22;54657;52.022;5.534;2023-01-24T01:37:38;4.90;80.60
65046;DHT22;54657;52.022;5.534;2023-01-24T01:40:04;5.00;80.80
65046;DHT22;54657;52.022;5.534;2023-01-24T01:45:35;4.90;80.60
65046;DHT22;54657;52.022;5.534;2023-01-24T01:48:24;5.00;80.40
65046;DHT22;54657;52.022;5.534;2023-01-24T01:50:56;4.90;80.50
65046;DHT22;54657;52.022;5.534;2023-01-24T01:53:24;4.90;80.40
65046;DHT22;54657;52.022;5.534;2023-01-24T01:56:00;4.90;80.70
65046;DHT22;54657;52.022;5.534;2023-01-24T01:58:27;4.90;80.20
65046;DHT22;54657;52.022;5.534;2023-01-24T02:00:53;5.00;80.80
65046;DHT22;54657;52.022;5.534;2023-01-24T02:03:25;5.10;80.90
65046;DHT22;54657;52.022;5.534;2023-01-24T02:09:03;5.10;79.40
65046;DHT22;54657;52.022;5.534;2023-01-24T02:11:30;5.10;80.30
65046;DHT22;54657;52.022;5.534;2023-01-24T02:14:11;5.10;80.60
65046;DHT22;54657;52.022;5.534;2023-01-24T02:16:57;5.10;80.40
65046;DHT22;54657;52.022;5.534;2023-01-24T02:19:29;5.00;80.40
65046;DHT22;54657;52.022;5.534;2023-01-24T02:22:07;5.00;80.50
65046;DHT22;54657;52.022;5.534;2023-01-24T02:24:40;5.00;80.20
65046;DHT22;54657;52.022;5.534;2023-01-24T02:27:07;4.90;80.80
65046;DHT22;54657;52.022;5.534;2023-01-24T02:29:33;4.90;80.70
65046;DHT22;54657;52.022;5.534;2023-01-24T02:32:01;5.00;81.00
65046;DHT22;54657;52.022;5.534;2023-01-24T02:34:28;5.00;80.70
65046;DHT22;54657;52.022;5.534;2023-01-24T02:36:58;5.00;80.60
65046;DHT22;54657;52.022;5.534;2023-01-24T02:39:29;4.90;80.70
65046;DHT22;54657;52.022;5.534;2023-01-24T02:42:12;4.90;80.60
65046;DHT22;54657;52.022;5.534;2023-01-24T02:44:52;4.90;80.90
65046;DHT22;54657;52.022;5.534;2023-01-24T02:47:18;4.90;81.00
65046;DHT22;54657;52.022;5.534;2023-01-24T02:49:50;4.80;81.10
65046;DHT22;54657;52.022;5.534;2023-01-24T02:52:15;4.80;81.00
65046;DHT22;54657;52.022;5.534;2023-01-24T02:55:10;4.80;81.20
65046;DHT22;54657;52.022;5.534;2023-01-24T02:57:36;4.80;81.30
65046;DHT22;54657;52.022;5.534;2023-01-24T03:00:20;4.80;81.20
65046;DHT22;54657;52.022;5.534;2023-01-24T03:02:46;4.80;81.40
65046;DHT22;54657;52.022;5.534;2023-01-24T03:05:12;4.80;81.20
65046;DHT22;54657;52.022;5.534;2023-01-24T03:07:37;4.80;81.30
65046;DHT22;54657;52.022;5.534;2023-01-24T03:10:14;4.80;81.50
65046;DHT22;54657;52.022;5.534;2023-01-24T03:12:40;4.80;81.60
65046;DHT22;54657;52.022;5.534;2023-01-24T03:15:24;4.90;81.50
65046;DHT22;54657;52.022;5.534;2023-01-24T03:18:09;4.90;81.40
65046;DHT22;54657;52.022;5.534;2023-01-24T03:20:53;4.90;81.40
65046;DHT22;54657;52.022;5.534;2023-01-24T03:23:37;4.90;81.40
65046;DHT22;54657;52.022;5.534;2023-01-24T03:26:22;4.80;81.30
65046;DHT22;54657;52.022;5.534;2023-01-24T03:29:09;4.80;81.20
65046;DHT22;54657;52.022;5.534;2023-01-24T03:31:54;4.70;81.50
65046;DHT22;54657;52.022;5.534;2023-01-24T03:34:39;4.70;81.50
65046;DHT22;54657;52.022;5.534;2023-01-24T03:37:12;4.70;81.40
65046;DHT22;54657;52.022;5.534;2023-01-24T03:39:38;4.70;81.30
65046;DHT22;54657;52.022;5.534;2023-01-24T03:42:24;4.70;81.50
65046;DHT22;54657;52.022;5.534;2023-01-24T03:44:52;4.70;81.40
65046;DHT22;54657;52.022;5.534;2023-01-24T03:47:20;4.70;81.40
65046;DHT22;54657;52.022;5.534;2023-01-24T03:49:46;4.60;81.50
65046;DHT22;54657;52.022;5.534;2023-01-24T03:52:30;4.70;81.40
65046;DHT22;54657;52.022;5.534;2023-01-24T03:55:00;4.60;81.30
65046;DHT22;54657;52.022;5.534;2023-01-24T03:57:29;4.60;81.40
65046;DHT22;54657;52.022;5.534;2023-01-24T03:59:55;4.60;81.50
65046;DHT22;54657;52.022;5.534;2023-01-24T04:02:21;4.60;81.50
65046;DHT22;54657;52.022;5.534;2023-01-24T04:04:47;4.60;81.30
65046;DHT22;54657;52.022;5.534;2023-01-24T04:07:32;4.50;81.30
65046;DHT22;54657;52.022;5.534;2023-01-24T04:09:57;4.50;81.70
65046;DHT22;54657;52.022;5.534;2023-01-24T04:12:27;4.60;81.60
65046;DHT22;54657;52.022;5.534;2023-01-24T04:14:52;4.60;81.50
65046;DHT22;54657;52.022;5.534;2023-01-24T04:17:18;4.50;81.30
65046;DHT22;54657;52.022;5.534;2023-01-24T04:19:44;4.50;81.30
65046;DHT22;54657;52.022;5.534;2023-01-24T04:22:15;4.50;81.50
65046;DHT22;54657;52.022;5.534;2023-01-24T04:24:41;4.50;81.50
65046;DHT22;54657;52.022;5.534;2023-01-24T04:27:07;4.50;81.60
65046;DHT22;54657;52.022;5.534;2023-01-24T04:29:33;4.50;81.50
65046;DHT22;54657;52.022;5.534;2023-01-24T04:31:58;4.60;81.60
65046;DHT22;54657;52.022;5.534;2023-01-24T04:34:24;4.50;81.60
65046;DHT22;54657;52.022;5.534;2023-01-24T04:36:50;4.50;81.50
65046;DHT22;54657;52.022;5.534;2023-01-24T04:39:15;4.50;81.60
65046;DHT22;54657;52.022;5.534;2023-01-24T04:41:41;4.50;81.70
65046;DHT22;54657;52.022;5.534;2023-01-24T04:44:06;4.50;81.90
65046;DHT22;54657;52.022;5.534;2023-01-24T04:46:35;4.50;81.60
65046;DHT22;54657;52.022;5.534;2023-01-24T04:49:00;4.60;81.80
65046;DHT22;54657;52.022;5.534;2023-01-24T04:51:26;4.60;81.90
65046;DHT22;54657;52.022;5.534;2023-01-24T04:53:52;4.60;81.80
65046;DHT22;54657;52.022;5.534;2023-01-24T04:56:17;4.50;81.80
65046;DHT22;54657;52.022;5.534;2023-01-24T04:58:44;4.50;81.90
65046;DHT22;54657;52.022;5.534;2023-01-24T05:01:09;4.50;81.80
65046;DHT22;54657;52.022;5.534;2023-01-24T05:03:35;4.50;81.90
65046;DHT22;54657;52.022;5.534;2023-01-24T05:06:01;4.50;81.90
65046;DHT22;54657;52.022;5.534;2023-01-24T05:08:27;4.50;81.90
65046;DHT22;54657;52.022;5.534;2023-01-24T05:10:53;4.50;82.00
65046;DHT22;54657;52.022;5.534;2023-01-24T05:13:18;4.50;82.00
65046;DHT22;54657;52.022;5.534;2023-01-24T05:15:50;4.40;82.10
65046;DHT22;54657;52.022;5.534;2023-01-24T05:18:17;4.40;82.10
65046;DHT22;54657;52.022;5.534;2023-01-24T05:20:43;4.40;82.20
65046;DHT22;54657;52.022;5.534;2023-01-24T05:23:09;4.30;82.30
65046;DHT22;54657;52.022;5.534;2023-01-24T05:25:34;4.20;82.40
65046;DHT22;54657;52.022;5.534;2023-01-24T05:28:00;4.20;82.30
65046;DHT22;54657;52.022;5.534;2023-01-24T05:30:26;4.20;82.30
65046;DHT22;54657;52.022;5.534;2023-01-24T05:32:56;4.20;82.40
65046;DHT22;54657;52.022;5.534;2023-01-24T05:35:21;4.20;82.10
65046;DHT22;54657;52.022;5.534;2023-01-24T05:37:47;4.20;82.30
65046;DHT22;54657;52.022;5.534;2023-01-24T05:40:12;4.10;82.20
65046;DHT22;54657;52.022;5.534;2023-01-24T05:42:40;4.10;82.40
65046;DHT22;54657;52.022;5.534;2023-01-24T05:45:06;4.10;82.50
65046;DHT22;54657;52.022;5.534;2023-01-24T05:47:32;4.10;82.60
65046;DHT22;54657;52.022;5.534;2023-01-24T05:49:58;4.10;82.50
65046;DHT22;54657;52.022;5.534;2023-01-24T05:52:23;4.20;82.50
65046;DHT22;54657;52.022;5.534;2023-01-24T05:54:49;4.20;82.50
65046;DHT22;54657;52.022;5.534;2023-01-24T05:57:15;4.30;82.50
65046;DHT22;54657;52.022;5.534;2023-01-24T05:59:40;4.30;82.20
65046;DHT22;54657;52.022;5.534;2023-01-24T06:02:06;4.20;82.10
65046;DHT22;54657;52.022;5.534;2023-01-24T06:04:31;4.10;82.20
65046;DHT22;54657;52.022;5.534;2023-01-24T06:06:57;4.00;82.30
65046;DHT22;54657;52.022;5.534;2023-01-24T06:09:22;4.00;82.30
65046;DHT22;54657;52.022;5.534;2023-01-24T06:11:49;4.00;82.40
65046;DHT22;54657;52.022;5.534;2023-01-24T06:14:14;4.00;82.50
65046;DHT22;54657;52.022;5.534;2023-01-24T06:16:41;4.10;82.50
65046;DHT22;54657;52.022;5.534;2023-01-24T06:19:10;4.10;82.40
65046;DHT22;54657;52.022;5.534;2023-01-24T06:24:22;4.20;82.10
65046;DHT22;54657;52.022;5.534;2023-01-24T06:26:49;4.20;82.10
65046;DHT22;54657;52.022;5.534;2023-01-24T06:29:16;4.20;82.10
65046;DHT22;54657;52.022;5.534;2023-01-24T06:37:56;4.40;82.10
65046;DHT22;54657;52.022;5.534;2023-01-24T06:40:23;4.40;82.00
65046;DHT22;54657;52.022;5.534;2023-01-24T06:42:50;4.40;82.10
65046;DHT22;54657;52.022;5.534;2023-01-24T06:45:16;4.30;82.10
65046;DHT22;54657;52.022;5.534;2023-01-24T06:47:42;4.30;82.30
65046;DHT22;54657;52.022;5.534;2023-01-24T06:50:17;4.30;82.60
65046;DHT22;54657;52.022;5.534;2023-01-24T06:52:47;4.30;82.60
65046;DHT22;54657;52.022;5.534;2023-01-24T06:55:13;4.30;82.40
65046;DHT22;54657;52.022;5.534;2023-01-24T06:57:39;4.30;82.50
65046;DHT22;54657;52.022;5.534;2023-01-24T07:00:06;4.40;82.40
65046;DHT22;54657;52.022;5.534;2023-01-24T07:02:31;4.30;82.20
65046;DHT22;54657;52.022;5.534;2023-01-24T07:04:57;4.20;82.20
65046;DHT22;54657;52.022;5.534;2023-01-24T07:07:22;4.10;82.40
65046;DHT22;54657;52.022;5.534;2023-01-24T07:09:48;4.10;82.70
65046;DHT22;54657;52.022;5.534;2023-01-24T07:12:15;4.10;82.70
65046;DHT22;54657;52.022;5.534;2023-01-24T07:14:40;4.10;82.60
65046;DHT22;54657;52.022;5.534;2023-01-24T07:17:06;4.10;82.60
65046;DHT22;54657;52.022;5.534;2023-01-24T07:19:32;4.10;82.60
65046;DHT22;54657;52.022;5.534;2023-01-24T07:21:59;4.10;82.60
65046;DHT22;54657;52.022;5.534;2023-01-24T07:24:27;4.10;82.50
65046;DHT22;54657;52.022;5.534;2023-01-24T07:26:53;4.10;82.60
65046;DHT22;54657;52.022;5.534;2023-01-24T07:29:19;4.10;82.60
65046;DHT22;54657;52.022;5.534;2023-01-24T07:31:45;4.10;82.70
65046;DHT22;54657;52.022;5.534;2023-01-24T07:34:14;4.10;82.70
65046;DHT22;54657;52.022;5.534;2023-01-24T07:36:41;4.10;82.60
65046;DHT22;54657;52.022;5.534;2023-01-24T07:39:07;4.10;82.50
65046;DHT22;54657;52.022;5.534;2023-01-24T07:41:35;4.10;83.00
65046;DHT22;54657;52.022;5.534;2023-01-24T07:44:00;4.10;82.70
65046;DHT22;54657;52.022;5.534;2023-01-24T07:46:32;4.20;82.80
65046;DHT22;54657;52.022;5.534;2023-01-24T07:48:58;4.20;82.70
65046;DHT22;54657;52.022;5.534;2023-01-24T07:51:23;4.20;82.70
65046;DHT22;54657;52.022;5.534;2023-01-24T07:53:49;4.10;82.60
65046;DHT22;54657;52.022;5.534;2023-01-24T07:56:14;4.00;82.40
65046;DHT22;54657;52.022;5.534;2023-01-24T07:58:43;4.00;82.80
65046;DHT22;54657;52.022;5.534;2023-01-24T08:01:09;4.00;82.80
65046;DHT22;54657;52.022;5.534;2023-01-24T08:03:34;4.00;82.70
65046;DHT22;54657;52.022;5.534;2023-01-24T08:06:02;4.00;82.70
65046;DHT22;54657;52.022;5.534;2023-01-24T08:08:28;4.00;82.80
65046;DHT22;54657;52.022;5.534;2023-01-24T08:10:54;4.00;82.80
65046;DHT22;54657;52.022;5.534;2023-01-24T08:13:19;4.10;82.80
65046;DHT22;54657;52.022;5.534;2023-01-24T08:15:47;4.10;82.70
65046;DHT22;54657;52.022;5.534;2023-01-24T08:18:12;4.10;82.60
65046;DHT22;54657;52.022;5.534;2023-01-24T08:20:38;4.10;82.60
65046;DHT22;54657;52.022;5.534;2023-01-24T08:23:03;4.20;82.80
65046;DHT22;54657;52.022;5.534;2023-01-24T08:25:29;4.10;82.60
65046;DHT22;54657;52.022;5.534;2023-01-24T08:27:57;4.10;82.90
65046;DHT22;54657;52.022;5.534;2023-01-24T08:30:23;4.10;82.80
65046;DHT22;54657;52.022;5.534;2023-01-24T08:32:57;4.10;83.50
65046;DHT22;54657;52.022;5.534;2023-01-24T08:35:23;4.00;83.00
65046;DHT22;54657;52.022;5.534;2023-01-24T08:37:48;3.90;83.40
65046;DHT22;54657;52.022;5.534;2023-01-24T08:40:14;3.90;83.30
65046;DHT22;54657;52.022;5.534;2023-01-24T08:42:40;3.90;83.40
65046;DHT22;54657;52.022;5.534;2023-01-24T08:45:06;3.80;83.30
65046;DHT22;54657;52.022;5.534;2023-01-24T08:47:31;3.80;83.30
65046;DHT22;54657;52.022;5.534;2023-01-24T08:49:57;3.70;83.40
65046;DHT22;54657;52.022;5.534;2023-01-24T08:52:22;3.70;83.80
65046;DHT22;54657;52.022;5.534;2023-01-24T08:54:48;3.70;83.70
65046;DHT22;54657;52.022;5.534;2023-01-24T08:57:13;3.80;83.70
65046;DHT22;54657;52.022;5.534;2023-01-24T08:59:39;3.80;83.30
65046;DHT22;54657;52.022;5.534;2023-01-24T09:02:05;3.90;83.40
65046;DHT22;54657;52.022;5.534;2023-01-24T09:04:31;3.90;83.20
65046;DHT22;54657;52.022;5.534;2023-01-24T09:06:56;3.90;83.20
65046;DHT22;54657;52.022;5.534;2023-01-24T09:09:22;4.00;83.20
65046;DHT22;54657;52.022;5.534;2023-01-24T09:11:49;4.00;83.00
65046;DHT22;54657;52.022;5.534;2023-01-24T09:14:15;3.90;82.80
65046;DHT22;54657;52.022;5.534;2023-01-24T09:16:40;3.90;82.90
65046;DHT22;54657;52.022;5.534;2023-01-24T09:19:06;4.00;82.80
65046;DHT22;54657;52.022;5.534;2023-01-24T09:21:33;4.00;82.90
65046;DHT22;54657;52.022;5.534;2023-01-24T09:23:59;4.00;83.00
65046;DHT22;54657;52.022;5.534;2023-01-24T09:26:24;4.00;82.90
65046;DHT22;54657;52.022;5.534;2023-01-24T09:28:50;4.00;82.90
65046;DHT22;54657;52.022;5.534;2023-01-24T09:31:16;4.00;83.10
65046;DHT22;54657;52.022;5.534;2023-01-24T09:33:41;4.10;82.90
65046;DHT22;54657;52.022;5.534;2023-01-24T09:36:07;4.10;82.80
65046;DHT22;54657;52.022;5.534;2023-01-24T09:38:34;4.10;83.00
65046;DHT22;54657;52.022;5.534;2023-01-24T09:41:17;4.10;83.00
65046;DHT22;54657;52.022;5.534;2023-01-24T09:43:53;4.10;82.70
65046;DHT22;54657;52.022;5.534;2023-01-24T09:46:40;4.10;83.10
65046;DHT22;54657;52.022;5.534;2023-01-24T09:49:21;4.10;82.80
65046;DHT22;54657;52.022;5.534;2023-01-24T09:51:53;4.00;82.90
65046;DHT22;54657;52.022;5.534;2023-01-24T09:54:34;4.10;82.80
65046;DHT22;54657;52.022;5.534;2023-01-24T09:57:05;4.00;82.90
65046;DHT22;54657;52.022;5.534;2023-01-24T09:59:42;4.00;83.00
65046;DHT22;54657;52.022;5.534;2023-01-24T10:02:17;4.00;82.90
65046;DHT22;54657;52.022;5.534;2023-01-24T10:04:44;4.00;82.90
65046;DHT22;54657;52.022;5.534;2023-01-24T10:18:09;4.10;83.20
65046;DHT22;54657;52.022;5.534;2023-01-24T10:23:43;4.10;82.70
65046;DHT22;54657;52.022;5.534;2023-01-24T10:26:19;4.10;82.80
65046;DHT22;54657;52.022;5.534;2023-01-24T10:28:50;4.10;82.60
65046;DHT22;54657;52.022;5.534;2023-01-24T10:31:34;4.10;82.40
65046;DHT22;54657;52.022;5.534;2023-01-24T10:36:57;4.20;82.20
65046;DHT22;54657;52.022;5.534;2023-01-24T10:39:24;4.10;82.40
65046;DHT22;54657;52.022;5.534;2023-01-24T10:41:51;4.20;82.50
65046;DHT22;54657;52.022;5.534;2023-01-24T10:44:28;4.20;82.40
65046;DHT22;54657;52.022;5.534;2023-01-24T10:50:08;4.20;82.10
65046;DHT22;54657;52.022;5.534;2023-01-24T10:52:33;4.20;82.00
65046;DHT22;54657;52.022;5.534;2023-01-24T10:55:01;4.20;82.30
65046;DHT22;54657;52.022;5.534;2023-01-24T11:00:00;4.10;82.30
65046;DHT22;54657;52.022;5.534;2023-01-24T11:02:26;4.10;82.40
65046;DHT22;54657;52.022;5.534;2023-01-24T11:04:59;4.10;82.30
65046;DHT22;54657;52.022;5.534;2023-01-24T11:07:33;4.10;82.60
65046;DHT22;54657;52.022;5.534;2023-01-24T11:10:22;4.00;82.40
65046;DHT22;54657;52.022;5.534;2023-01-24T11:12:59;4.00;82.20
65046;DHT22;54657;52.022;5.534;2023-01-24T11:15:31;4.00;82.90
65046;DHT22;54657;52.022;5.534;2023-01-24T11:18:12;4.10;82.90
65046;DHT22;54657;52.022;5.534;2023-01-24T11:20:39;4.20;82.60
65046;DHT22;54657;52.022;5.534;2023-01-24T11:23:17;4.30;82.50
65046;DHT22;54657;52.022;5.534;2023-01-24T11:25:58;4.40;82.20
65046;DHT22;54657;52.022;5.534;2023-01-24T11:28:29;4.30;82.10
65046;DHT22;54657;52.022;5.534;2023-01-24T11:30:58;4.30;81.90
65046;DHT22;54657;52.022;5.534;2023-01-24T11:39:03;4.30;82.00
65046;DHT22;54657;52.022;5.534;2023-01-24T11:41:53;4.30;82.20
65046;DHT22;54657;52.022;5.534;2023-01-24T11:44:36;4.30;82.30
65046;DHT22;54657;52.022;5.534;2023-01-24T11:47:17;4.30;82.00
65046;DHT22;54657;52.022;5.534;2023-01-24T11:52:33;4.40;82.00
65046;DHT22;54657;52.022;5.534;2023-01-24T12:01:15;4.50;81.80
65046;DHT22;54657;52.022;5.534;2023-01-24T12:03:59;4.50;81.60
65046;DHT22;54657;52.022;5.534;2023-01-24T12:06:37;4.50;81.50
65046;DHT22;54657;52.022;5.534;2023-01-24T12:09:25;4.50;81.70
65046;DHT22;54657;52.022;5.534;2023-01-24T12:12:13;4.50;81.70
65046;DHT22;54657;52.022;5.534;2023-01-24T12:20:23;4.60;81.50
65046;DHT22;54657;52.022;5.534;2023-01-24T12:22:52;4.60;81.50
65046;DHT22;54657;52.022;5.534;2023-01-24T12:25:26;4.70;81.70
65046;DHT22;54657;52.022;5.534;2023-01-24T12:27:56;4.70;81.50
65046;DHT22;54657;52.022;5.534;2023-01-24T12:32:57;4.80;81.40
65046;DHT22;54657;52.022;5.534;2023-01-24T12:35:37;4.80;81.50
65046;DHT22;54657;52.022;5.534;2023-01-24T12:44:11;4.90;81.10
65046;DHT22;54657;52.022;5.534;2023-01-24T12:46:44;4.90;80.90
65046;DHT22;54657;52.022;5.534;2023-01-24T12:49:19;4.90;81.20
65046;DHT22;54657;52.022;5.534;2023-01-24T12:52:00;4.90;80.90
65046;DHT22;54657;52.022;5.534;2023-01-24T12:54:53;4.90;81.20
65046;DHT22;54657;52.022;5.534;2023-01-24T12:57:31;4.90;81.20
65046;DHT22;54657;52.022;5.534;2023-01-24T13:00:00;4.90;82.00
65046;DHT22;54657;52.022;5.534;2023-01-24T13:02:31;4.90;81.50
65046;DHT22;54657;52.022;5.534;2023-01-24T13:08:03;4.90;81.30
65046;DHT22;54657;52.022;5.534;2023-01-24T13:11:00;4.90;80.60
65046;DHT22;54657;52.022;5.534;2023-01-24T13:13:38;5.00;81.00
65046;DHT22;54657;52.022;5.534;2023-01-24T13:16:44;5.00;81.20
65046;DHT22;54657;52.022;5.534;2023-01-24T13:19:47;4.90;80.80
65046;DHT22;54657;52.022;5.534;2023-01-24T13:25:38;4.80;81.10
65046;DHT22;54657;52.022;5.534;2023-01-24T13:28:32;4.70;78.80
65046;DHT22;54657;52.022;5.534;2023-01-24T13:33:40;4.60;81.50
65046;DHT22;54657;52.022;5.534;2023-01-24T13:36:22;4.60;81.60
65046;DHT22;54657;52.022;5.534;2023-01-24T13:38:48;4.70;81.40
65046;DHT22;54657;52.022;5.534;2023-01-24T13:41:17;4.70;81.20
65046;DHT22;54657;52.022;5.534;2023-01-24T13:46:12;4.80;81.20
65046;DHT22;54657;52.022;5.534;2023-01-24T13:54:04;4.80;80.60
65046;DHT22;54657;52.022;5.534;2023-01-24T13:56:31;4.80;80.60
65046;DHT22;54657;52.022;5.534;2023-01-24T13:58:58;4.70;81.00
65046;DHT22;54657;52.022;5.534;2023-01-24T14:01:25;4.70;81.00
65046;DHT22;54657;52.022;5.534;2023-01-24T14:06:22;4.50;80.80
65046;DHT22;54657;52.022;5.534;2023-01-24T14:09:02;4.50;81.00
65046;DHT22;54657;52.022;5.534;2023-01-24T14:11:34;4.40;81.10
65046;DHT22;54657;52.022;5.534;2023-01-24T14:15:23;4.40;80.70
65046;DHT22;54657;52.022;5.534;2023-01-24T14:17:44;4.30;81.10
65046;DHT22;54657;52.022;5.534;2023-01-24T14:20:36;4.40;81.20
65046;DHT22;54657;52.022;5.534;2023-01-24T14:23:10;4.40;81.20
65046;DHT22;54657;52.022;5.534;2023-01-24T14:25:41;4.60;81.20
65046;DHT22;54657;52.022;5.534;2023-01-24T14:31:05;4.50;80.80
65046;DHT22;54657;52.022;5.534;2023-01-24T14:33:34;4.50;80.80
65046;DHT22;54657;52.022;5.534;2023-01-24T14:36:26;4.50;80.90
65046;DHT22;54657;52.022;5.534;2023-01-24T14:41:43;4.40;80.80
65046;DHT22;54657;52.022;5.534;2023-01-24T14:44:26;4.40;81.30
65046;DHT22;54657;52.022;5.534;2023-01-24T14:46:57;4.40;81.40
65046;DHT22;54657;52.022;5.534;2023-01-24T14:49:32;4.40;81.40
65046;DHT22;54657;52.022;5.534;2023-01-24T14:52:00;4.50;81.00
65046;DHT22;54657;52.022;5.534;2023-01-24T14:54:26;4.50;80.90
65046;DHT22;54657;52.022;5.534;2023-01-24T14:56:52;4.50;80.80
65046;DHT22;54657;52.022;5.534;2023-01-24T14:59:19;4.50;81.00
65046;DHT22;54657;52.022;5.534;2023-01-24T15:01:49;4.50;80.80
65046;DHT22;54657;52.022;5.534;2023-01-24T15:04:25;4.50;80.90
65046;DHT22;54657;52.022;5.534;2023-01-24T15:07:06;4.50;81.10
65046;DHT22;54657;52.022;5.534;2023-01-24T15:09:31;4.40;80.80
65046;DHT22;54657;52.022;5.534;2023-01-24T15:12:11;4.40;80.90
65046;DHT22;54657;52.022;5.534;2023-01-24T15:14:37;4.50;81.00
65046;DHT22;54657;52.022;5.534;2023-01-24T15:17:03;4.40;81.20
65046;DHT22;54657;52.022;5.534;2023-01-24T15:19:31;4.40;81.30
65046;DHT22;54657;52.022;5.534;2023-01-24T15:21:57;4.50;81.20
65046;DHT22;54657;52.022;5.534;2023-01-24T15:24:28;4.50;81.00
65046;DHT22;54657;52.022;5.534;2023-01-24T15:26:56;4.50;81.00
65046;DHT22;54657;52.022;5.534;2023-01-24T15:32:28;4.50;80.70
65046;DHT22;54657;52.022;5.534;2023-01-24T15:40:34;4.70;80.50
65046;DHT22;54657;52.022;5.534;2023-01-24T15:43:01;4.70;80.60
65046;DHT22;54657;52.022;5.534;2023-01-24T15:45:53;4.70;80.60
65046;DHT22;54657;52.022;5.534;2023-01-24T15:48:59;4.70;80.60
65046;DHT22;54657;52.022;5.534;2023-01-24T15:51:36;4.80;80.40
65046;DHT22;54657;52.022;5.534;2023-01-24T15:54:14;4.80;80.30
65046;DHT22;54657;52.022;5.534;2023-01-24T15:56:41;4.80;80.80
65046;DHT22;54657;52.022;5.534;2023-01-24T15:59:17;4.80;80.50
65046;DHT22;54657;52.022;5.534;2023-01-24T16:01:43;4.80;80.40
65046;DHT22;54657;52.022;5.534;2023-01-24T16:04:15;4.70;80.60
65046;DHT22;54657;52.022;5.534;2023-01-24T16:06:41;4.70;80.80
65046;DHT22;54657;52.022;5.534;2023-01-24T16:09:06;4.60;80.90
65046;DHT22;54657;52.022;5.534;2023-01-24T16:11:35;4.60;81.00
65046;DHT22;54657;52.022;5.534;2023-01-24T16:14:01;4.50;81.10
65046;DHT22;54657;52.022;5.534;2023-01-24T16:16:27;4.40;80.90
65046;DHT22;54657;52.022;5.534;2023-01-24T16:18:53;4.30;80.90
65046;DHT22;54657;52.022;5.534;2023-01-24T16:21:18;4.30;80.80
65046;DHT22;54657;52.022;5.534;2023-01-24T16:23:44;4.30;81.10
65046;DHT22;54657;52.022;5.534;2023-01-24T16:26:36;4.20;80.80
65046;DHT22;54657;52.022;5.534;2023-01-24T16:29:02;4.20;80.10
65046;DHT22;54657;52.022;5.534;2023-01-24T16:31:28;4.20;81.50
65046;DHT22;54657;52.022;5.534;2023-01-24T16:33:54;4.10;81.40
65046;DHT22;54657;52.022;5.534;2023-01-24T16:36:19;4.10;81.60
65046;DHT22;54657;52.022;5.534;2023-01-24T16:38:46;4.10;81.70
65046;DHT22;54657;52.022;5.534;2023-01-24T16:41:12;4.10;81.50
65046;DHT22;54657;52.022;5.534;2023-01-24T16:43:40;4.10;81.60
65046;DHT22;54657;52.022;5.534;2023-01-24T16:46:25;4.10;81.40
65046;DHT22;54657;52.022;5.534;2023-01-24T16:48:51;4.20;81.10
65046;DHT22;54657;52.022;5.534;2023-01-24T16:51:18;4.10;81.40
65046;DHT22;54657;52.022;5.534;2023-01-24T16:53:44;4.20;81.40
65046;DHT22;54657;52.022;5.534;2023-01-24T16:56:11;4.20;81.90
65046;DHT22;54657;52.022;5.534;2023-01-24T16:58:36;4.30;81.20
65046;DHT22;54657;52.022;5.534;2023-01-24T17:01:06;4.30;81.10
65046;DHT22;54657;52.022;5.534;2023-01-24T17:03:32;4.30;80.90
65046;DHT22;54657;52.022;5.534;2023-01-24T17:05:58;4.40;80.90
65046;DHT22;54657;52.022;5.534;2023-01-24T17:08:23;4.50;80.90
65046;DHT22;54657;52.022;5.534;2023-01-24T17:10:49;4.40;80.80
65046;DHT22;54657;52.022;5.534;2023-01-24T17:13:14;4.40;80.80
65046;DHT22;54657;52.022;5.534;2023-01-24T17:15:40;4.30;80.70
65046;DHT22;54657;52.022;5.534;2023-01-24T17:18:06;4.40;81.20
65046;DHT22;54657;52.022;5.534;2023-01-24T17:20:32;4.40;81.20
65046;DHT22;54657;52.022;5.534;2023-01-24T17:22:58;4.40;81.20
65046;DHT22;54657;52.022;5.534;2023-01-24T17:25:28;4.30;81.20
65046;DHT22;54657;52.022;5.534;2023-01-24T17:27:54;4.30;81.20
65046;DHT22;54657;52.022;5.534;2023-01-24T17:30:20;4.30;81.10
65046;DHT22;54657;52.022;5.534;2023-01-24T17:32:45;4.30;81.20
65046;DHT22;54657;52.022;5.534;2023-01-24T17:35:11;4.30;81.30
65046;DHT22;54657;52.022;5.534;2023-01-24T17:37:36;4.30;81.20
65046;DHT22;54657;52.022;5.534;2023-01-24T17:40:02;4.20;81.00
65046;DHT22;54657;52.022;5.534;2023-01-24T17:42:28;4.10;81.10